createdAt,value
2023-09-08T00:00:16.813Z,23.60
2023-09-08T00:02:43.854Z,23.60
2023-09-08T00:05:11.769Z,23.50
2023-09-08T00:07:38.950Z,23.50
2023-09-08T00:10:06.623Z,23.50
2023-09-08T00:12:33.635Z,23.40
2023-09-08T00:15:00.568Z,23.40
2023-09-08T00:17:27.674Z,23.30
2023-09-08T00:19:54.653Z,23.30
2023-09-08T00:22:21.559Z,23.20
2023-09-08T00:24:48.473Z,23.20
2023-09-08T00:27:15.615Z,23.10
2023-09-08T00:29:42.550Z,23.10
2023-09-08T00:32:09.534Z,23.00
2023-09-08T00:34:36.546Z,23.00
2023-09-08T00:37:08.210Z,23.00
2023-09-08T00:39:39.460Z,23.00
2023-09-08T00:42:08.158Z,22.90
2023-09-08T00:44:35.587Z,22.90
2023-09-08T00:47:02.667Z,22.80
2023-09-08T00:49:29.922Z,22.70
2023-09-08T00:51:57.137Z,22.70
2023-09-08T00:54:24.150Z,22.60
2023-09-08T00:57:00.516Z,22.60
2023-09-08T00:59:28.194Z,22.50
2023-09-08T01:01:55.089Z,22.50
2023-09-08T01:04:22.437Z,22.50
2023-09-08T01:06:50.483Z,22.40
2023-09-08T01:09:18.837Z,22.40
2023-09-08T01:11:46.642Z,22.40
2023-09-08T01:14:20.837Z,22.30
2023-09-08T01:16:47.890Z,22.30
2023-09-08T01:19:18.047Z,22.20
2023-09-08T01:22:10.103Z,22.20
2023-09-08T01:24:58.070Z,22.20
2023-09-08T01:27:26.852Z,22.20
2023-09-08T01:29:55.451Z,22.10
2023-09-08T01:32:23.286Z,22.10
2023-09-08T01:34:50.335Z,22.10
2023-09-08T01:37:17.372Z,22.10
2023-09-08T01:39:44.341Z,22.10
2023-09-08T01:42:11.297Z,22.00
2023-09-08T01:44:38.305Z,22.00
2023-09-08T01:47:05.421Z,21.90
2023-09-08T01:49:32.440Z,21.90
2023-09-08T01:51:59.511Z,21.90
2023-09-08T01:54:26.402Z,21.90
2023-09-08T01:56:53.438Z,21.90
2023-09-08T01:59:20.395Z,21.90
2023-09-08T02:01:47.468Z,21.80
2023-09-08T02:04:14.423Z,21.80
2023-09-08T02:06:42.057Z,21.80
2023-09-08T02:09:11.228Z,21.70
2023-09-08T02:11:38.238Z,21.70
2023-09-08T02:14:05.214Z,21.70
2023-09-08T02:16:32.179Z,21.60
2023-09-08T02:18:59.864Z,21.60
2023-09-08T02:21:27.620Z,21.60
2023-09-08T02:23:54.674Z,21.60
2023-09-08T02:26:21.754Z,21.50
2023-09-08T02:28:48.661Z,21.50
2023-09-08T02:31:18.212Z,21.50
2023-09-08T02:33:45.382Z,21.50
2023-09-08T02:36:12.359Z,21.50
2023-09-08T02:38:41.027Z,21.40
2023-09-08T02:41:08.540Z,21.40
2023-09-08T02:43:35.457Z,21.40
2023-09-08T02:46:02.572Z,21.40
2023-09-08T02:48:31.155Z,21.40
2023-09-08T02:50:58.335Z,21.40
2023-09-08T02:53:29.878Z,21.30
2023-09-08T02:55:57.716Z,21.30
2023-09-08T02:58:25.354Z,21.30
2023-09-08T03:00:53.228Z,21.30
2023-09-08T03:03:23.139Z,21.20
2023-09-08T03:05:57.635Z,21.20
2023-09-08T03:08:25.345Z,21.20
2023-09-08T03:10:58.393Z,21.10
2023-09-08T03:13:27.098Z,21.10
2023-09-08T03:15:54.285Z,21.10
2023-09-08T03:18:21.405Z,21.10
2023-09-08T03:20:52.210Z,21.10
2023-09-08T03:23:19.322Z,21.00
2023-09-08T03:25:46.241Z,21.00
2023-09-08T03:28:13.378Z,21.00
2023-09-08T03:30:40.331Z,21.00
2023-09-08T03:33:07.403Z,20.90
2023-09-08T03:35:36.058Z,20.90
2023-09-08T03:38:03.044Z,20.90
2023-09-08T03:40:30.051Z,20.80
2023-09-08T03:42:58.027Z,20.80
2023-09-08T03:45:25.370Z,20.80
2023-09-08T03:47:52.331Z,20.80
2023-09-08T03:50:19.269Z,20.70
2023-09-08T03:52:46.269Z,20.70
2023-09-08T03:55:14.977Z,20.70
2023-09-08T03:57:41.887Z,20.60
2023-09-08T04:00:11.624Z,20.60
2023-09-08T04:02:41.553Z,20.60
2023-09-08T04:05:09.592Z,20.60
2023-09-08T04:07:36.931Z,20.50
2023-09-08T04:10:04.644Z,20.50
2023-09-08T04:12:31.618Z,20.50
2023-09-08T04:14:58.736Z,20.40
2023-09-08T04:17:25.723Z,20.40
2023-09-08T04:19:52.685Z,20.30
2023-09-08T04:22:20.462Z,20.30
2023-09-08T04:24:47.455Z,20.30
2023-09-08T04:27:15.843Z,20.20
2023-09-08T04:29:43.107Z,20.20
2023-09-08T04:32:10.161Z,20.20
2023-09-08T04:34:42.431Z,20.20
2023-09-08T04:37:10.190Z,20.20
2023-09-08T04:39:38.292Z,20.10
2023-09-08T04:42:06.437Z,20.10
2023-09-08T04:44:34.262Z,20.10
2023-09-08T04:47:01.922Z,20.10
2023-09-08T04:49:30.179Z,20.10
2023-09-08T04:51:57.894Z,20.00
2023-09-08T04:54:28.343Z,20.00
2023-09-08T04:57:03.898Z,20.00
2023-09-08T04:59:40.690Z,20.00
2023-09-08T05:02:08.210Z,20.00
2023-09-08T05:04:35.169Z,19.90
2023-09-08T05:07:02.142Z,19.90
2023-09-08T05:09:29.271Z,19.90
2023-09-08T05:11:56.205Z,19.80
2023-09-08T05:14:23.267Z,19.80
2023-09-08T05:16:56.459Z,19.80
2023-09-08T05:19:26.542Z,19.80
2023-09-08T05:21:56.002Z,19.80
2023-09-08T05:24:23.894Z,19.70
2023-09-08T05:26:51.135Z,19.70
2023-09-08T05:29:18.371Z,19.70
2023-09-08T05:31:45.595Z,19.70
2023-09-08T05:34:12.941Z,19.70
2023-09-08T05:36:41.239Z,19.70
2023-09-08T05:39:08.937Z,19.70
2023-09-08T05:41:36.474Z,19.70
2023-09-08T05:44:04.772Z,19.70
2023-09-08T05:46:33.409Z,19.80
2023-09-08T05:49:01.294Z,19.70
2023-09-08T05:51:28.732Z,19.70
2023-09-08T05:53:57.188Z,19.80
2023-09-08T05:56:32.869Z,19.80
2023-09-08T05:58:59.843Z,19.80
2023-09-08T06:01:26.897Z,19.80
2023-09-08T06:03:55.815Z,19.90
2023-09-08T06:06:24.126Z,19.90
2023-09-08T06:08:51.016Z,19.90
2023-09-08T06:11:18.655Z,19.90
2023-09-08T06:13:46.124Z,20.00
2023-09-08T06:16:13.236Z,20.00
2023-09-08T06:18:42.833Z,20.00
2023-09-08T06:21:12.971Z,20.10
2023-09-08T06:23:40.693Z,20.10
2023-09-08T06:26:07.963Z,20.20
2023-09-08T06:28:37.152Z,20.20
2023-09-08T06:31:05.847Z,20.20
2023-09-08T06:33:33.125Z,20.30
2023-09-08T06:36:00.147Z,20.30
2023-09-08T06:38:27.177Z,20.30
2023-09-08T06:40:55.079Z,20.40
2023-09-08T06:43:22.451Z,20.40
2023-09-08T06:45:56.647Z,20.50
2023-09-08T06:48:24.744Z,20.50
2023-09-08T06:50:55.650Z,20.60
2023-09-08T06:53:24.423Z,20.60
2023-09-08T06:55:51.835Z,20.70
2023-09-08T06:58:18.799Z,20.70
2023-09-08T07:00:46.007Z,20.80
2023-09-08T07:03:13.216Z,20.80
2023-09-08T07:05:40.925Z,20.80
2023-09-08T07:08:08.393Z,20.90
2023-09-08T07:10:35.586Z,20.90
2023-09-08T07:13:03.139Z,21.00
2023-09-08T07:15:30.109Z,21.00
2023-09-08T07:17:58.130Z,21.10
2023-09-08T07:20:25.294Z,21.10
2023-09-08T07:22:52.489Z,21.20
2023-09-08T07:25:20.675Z,21.20
2023-09-08T07:27:49.074Z,21.30
2023-09-08T07:30:16.476Z,21.40
2023-09-08T07:32:43.633Z,21.40
2023-09-08T07:35:15.357Z,21.50
2023-09-08T07:37:44.711Z,21.50
2023-09-08T07:40:12.725Z,21.60
2023-09-08T07:42:39.797Z,21.60
2023-09-08T07:45:07.836Z,21.70
2023-09-08T07:47:34.788Z,21.80
2023-09-08T07:50:23.912Z,21.80
2023-09-08T07:52:53.109Z,21.90
2023-09-08T07:55:20.363Z,22.00
2023-09-08T07:57:47.621Z,22.10
2023-09-08T08:00:15.295Z,22.10
2023-09-08T08:02:49.813Z,22.20
2023-09-08T08:05:17.425Z,22.20
2023-09-08T08:07:45.652Z,22.30
2023-09-08T08:10:13.930Z,22.40
2023-09-08T08:12:42.810Z,22.50
2023-09-08T08:15:11.510Z,22.50
2023-09-08T08:17:40.190Z,22.60
2023-09-08T08:20:10.607Z,22.70
2023-09-08T08:22:38.492Z,22.80
2023-09-08T08:25:06.498Z,22.90
2023-09-08T08:27:33.759Z,23.00
2023-09-08T08:30:02.203Z,23.00
2023-09-08T08:32:30.069Z,23.10
2023-09-08T08:34:58.026Z,23.30
2023-09-08T08:37:25.097Z,23.40
2023-09-08T08:39:52.237Z,23.50
2023-09-08T08:42:23.288Z,23.60
2023-09-08T08:44:51.322Z,23.70
2023-09-08T08:47:20.626Z,23.80
2023-09-08T08:49:48.841Z,23.90
2023-09-08T08:52:16.723Z,24.00
2023-09-08T08:54:43.967Z,24.10
2023-09-08T08:57:12.919Z,24.30
2023-09-08T08:59:42.350Z,24.50
2023-09-08T09:02:12.641Z,24.60
2023-09-08T09:04:40.343Z,24.70
2023-09-08T09:07:08.308Z,24.90
2023-09-08T09:09:36.230Z,25.00
2023-09-08T09:12:04.202Z,25.20
2023-09-08T09:14:36.077Z,25.40
2023-09-08T09:17:42.210Z,25.70
2023-09-08T09:20:21.456Z,26.00
2023-09-08T09:22:50.257Z,26.20
2023-09-08T09:25:30.688Z,26.40
2023-09-08T09:28:03.843Z,26.60
2023-09-08T09:30:52.509Z,26.90
2023-09-08T09:33:19.779Z,27.20
2023-09-08T09:35:53.150Z,27.40
2023-09-08T09:38:21.665Z,27.70
2023-09-08T09:40:50.045Z,27.90
2023-09-08T09:43:18.631Z,28.10
2023-09-08T09:45:46.155Z,28.30
2023-09-08T09:48:13.679Z,28.50
2023-09-08T09:50:44.197Z,28.70
2023-09-08T09:53:17.040Z,28.90
2023-09-08T09:55:46.417Z,29.10
2023-09-08T09:58:15.384Z,29.20
2023-09-08T10:00:42.934Z,29.40
2023-09-08T10:03:11.893Z,29.50
2023-09-08T10:05:38.973Z,29.70
2023-09-08T10:08:06.943Z,29.90
2023-09-08T10:10:35.791Z,30.10
2023-09-08T10:13:08.641Z,30.20
2023-09-08T10:15:36.880Z,30.40
2023-09-08T10:18:06.774Z,30.60
2023-09-08T10:20:35.726Z,30.70
2023-09-08T10:23:21.135Z,30.90
2023-09-08T10:25:55.823Z,31.10
2023-09-08T10:28:27.491Z,31.30
2023-09-08T10:30:55.252Z,31.50
2023-09-08T10:33:25.151Z,31.60
2023-09-08T10:35:53.013Z,31.70
2023-09-08T10:38:29.738Z,31.90
2023-09-08T10:41:18.697Z,32.00
2023-09-08T10:44:02.841Z,32.20
2023-09-08T10:46:32.427Z,32.40
2023-09-08T10:49:11.437Z,32.40
2023-09-08T10:51:39.941Z,32.60
2023-09-08T10:54:07.162Z,32.70
2023-09-08T10:56:57.469Z,32.80
2023-09-08T10:59:36.582Z,33.00
2023-09-08T11:02:06.838Z,33.10
2023-09-08T11:04:36.984Z,33.30
2023-09-08T11:07:04.766Z,33.50
2023-09-08T11:09:37.654Z,33.70
2023-09-08T11:12:06.474Z,33.80
2023-09-08T11:14:33.578Z,33.90
2023-09-08T11:17:04.316Z,34.10
2023-09-08T11:19:49.133Z,34.20
2023-09-08T11:22:17.454Z,34.40
2023-09-08T11:24:45.849Z,34.50
2023-09-08T11:27:13.374Z,34.70
2023-09-08T11:29:43.887Z,34.80
2023-09-08T11:32:11.578Z,34.90
2023-09-08T11:34:39.022Z,35.00
2023-09-08T11:37:14.432Z,35.10
2023-09-08T11:39:42.437Z,35.30
2023-09-08T11:42:12.571Z,35.50
2023-09-08T11:44:40.159Z,35.70
2023-09-08T11:47:11.824Z,35.80
2023-09-08T11:49:41.505Z,36.00
2023-09-08T11:52:09.212Z,36.10
2023-09-08T11:54:39.560Z,36.20
2023-09-08T11:57:13.205Z,36.40
2023-09-08T11:59:41.395Z,36.50
2023-09-08T12:02:08.387Z,36.70
2023-09-08T12:04:36.858Z,36.90
2023-09-08T12:07:04.078Z,37.10
2023-09-08T12:09:31.558Z,37.10
2023-09-08T12:12:02.378Z,37.30
2023-09-08T12:14:29.385Z,37.40
2023-09-08T12:17:09.801Z,37.60
2023-09-08T12:19:40.328Z,37.70
2023-09-08T12:22:13.298Z,37.80
2023-09-08T12:24:57.641Z,37.80
2023-09-08T12:27:24.919Z,38.00
2023-09-08T12:30:01.798Z,38.10
2023-09-08T12:32:32.404Z,38.20
2023-09-08T12:35:02.686Z,38.40
2023-09-08T12:37:30.137Z,38.50
2023-09-08T12:39:57.944Z,38.60
2023-09-08T12:42:30.264Z,38.70
2023-09-08T12:44:58.696Z,38.80
2023-09-08T12:47:25.673Z,38.90
2023-09-08T12:49:53.030Z,39.10
2023-09-08T12:52:20.109Z,39.20
2023-09-08T12:54:47.045Z,39.30
2023-09-08T12:57:14.059Z,39.30
2023-09-08T12:59:41.210Z,39.40
2023-09-08T13:02:08.236Z,39.50
2023-09-08T13:04:35.134Z,39.60
2023-09-08T13:07:02.587Z,39.80
2023-09-08T13:09:29.734Z,39.70
2023-09-08T13:11:56.712Z,39.80
2023-09-08T13:14:23.690Z,40.00
2023-09-08T13:16:50.672Z,40.00
2023-09-08T13:19:17.667Z,40.00
2023-09-08T13:21:44.613Z,40.10
2023-09-08T13:24:12.177Z,40.30
2023-09-08T13:26:41.660Z,40.40
2023-09-08T13:29:08.991Z,40.50
2023-09-08T13:31:36.104Z,40.60
2023-09-08T13:34:03.229Z,40.60
2023-09-08T13:36:30.237Z,40.70
2023-09-08T13:38:57.293Z,40.80
2023-09-08T13:41:24.239Z,40.80
2023-09-08T13:43:51.369Z,40.90
2023-09-08T13:46:18.600Z,41.00
2023-09-08T13:48:46.482Z,41.00
2023-09-08T13:51:14.587Z,41.20
2023-09-08T13:53:47.032Z,41.20
2023-09-08T13:56:15.603Z,41.30
2023-09-08T14:04:02.639Z,41.30
2023-09-08T14:06:36.334Z,41.40
2023-09-08T14:12:02.419Z,41.60
2023-09-08T14:14:25.506Z,41.70
2023-09-08T14:16:52.593Z,41.70
2023-09-08T14:19:19.631Z,41.80
2023-09-08T14:21:46.605Z,41.90
2023-09-08T14:24:13.675Z,42.00
2023-09-08T14:26:40.672Z,42.10
2023-09-08T14:29:07.647Z,42.20
2023-09-08T14:31:35.131Z,42.30
2023-09-08T14:34:02.267Z,42.30
2023-09-08T14:36:29.217Z,42.40
2023-09-08T14:38:57.058Z,42.50
2023-09-08T14:41:24.078Z,42.60
2023-09-08T14:43:51.067Z,42.70
2023-09-08T14:46:18.063Z,42.70
2023-09-08T14:48:45.078Z,42.80
2023-09-08T14:51:12.603Z,42.90
2023-09-08T14:53:39.821Z,43.00
2023-09-08T14:56:07.003Z,43.10
2023-09-08T14:58:35.226Z,43.20
2023-09-08T15:01:08.160Z,43.20
2023-09-08T15:03:36.204Z,43.40
2023-09-08T15:06:03.546Z,43.50
2023-09-08T15:08:30.715Z,43.60
2023-09-08T15:10:57.666Z,43.70
2023-09-08T15:13:25.137Z,43.80
2023-09-08T15:15:52.212Z,44.00
2023-09-08T15:18:20.970Z,44.00
2023-09-08T15:20:55.683Z,44.10
2023-09-08T15:23:23.173Z,44.10
2023-09-08T15:25:58.164Z,44.30
2023-09-08T15:28:26.163Z,44.40
2023-09-08T15:30:55.032Z,44.50
2023-09-08T15:33:24.185Z,44.60
2023-09-08T15:35:55.843Z,44.60
2023-09-08T15:38:23.749Z,44.70
2023-09-08T15:41:09.660Z,44.80
2023-09-08T15:43:41.887Z,44.90
2023-09-08T15:46:09.677Z,44.90
2023-09-08T15:48:38.132Z,44.90
2023-09-08T15:51:07.566Z,44.90
2023-09-08T15:53:34.854Z,44.90
2023-09-08T15:56:02.386Z,44.90
2023-09-08T15:58:29.405Z,44.90
2023-09-08T16:00:56.385Z,45.00
2023-09-08T16:03:23.427Z,44.90
2023-09-08T16:05:50.487Z,44.90
2023-09-08T16:08:17.461Z,44.90
2023-09-08T16:10:44.515Z,44.90
2023-09-08T16:13:11.580Z,44.80
2023-09-08T16:15:39.824Z,44.80
2023-09-08T16:18:07.359Z,44.80
2023-09-08T16:20:34.294Z,44.80
2023-09-08T16:23:01.304Z,44.90
2023-09-08T16:25:28.218Z,44.30
2023-09-08T16:27:55.126Z,43.00
2023-09-08T16:30:22.106Z,41.70
2023-09-08T16:32:49.170Z,40.40
2023-09-08T16:35:16.411Z,39.40
2023-09-08T16:37:44.532Z,38.60
2023-09-08T16:40:11.830Z,37.90
2023-09-08T16:42:38.855Z,37.40
2023-09-08T16:45:06.497Z,36.80
2023-09-08T16:47:33.496Z,36.50
2023-09-08T16:50:00.679Z,36.10
2023-09-08T16:52:27.578Z,35.80
2023-09-08T16:54:54.636Z,35.40
2023-09-08T16:57:21.603Z,35.20
2023-09-08T16:59:48.624Z,35.00
2023-09-08T17:02:16.691Z,34.70
2023-09-08T17:04:45.293Z,34.50
2023-09-08T17:07:12.801Z,34.30
2023-09-08T17:09:39.792Z,34.20
2023-09-08T17:12:08.342Z,34.00
2023-09-08T17:14:35.768Z,33.90
2023-09-08T17:17:03.439Z,33.70
2023-09-08T17:19:30.998Z,33.60
2023-09-08T17:21:59.267Z,33.40
2023-09-08T17:24:28.454Z,33.20
2023-09-08T17:26:57.721Z,33.10
2023-09-08T17:29:24.760Z,32.90
2023-09-08T17:31:51.823Z,32.70
2023-09-08T17:34:21.007Z,32.60
2023-09-08T17:37:01.225Z,32.40
2023-09-08T17:39:28.354Z,32.30
2023-09-08T17:41:55.750Z,32.10
2023-09-08T17:44:22.824Z,31.90
2023-09-08T17:46:50.173Z,31.70
2023-09-08T17:49:17.278Z,31.60
2023-09-08T17:51:44.306Z,31.50
2023-09-08T17:54:11.410Z,31.30
2023-09-08T17:56:38.476Z,31.20
2023-09-08T17:59:05.465Z,31.10
2023-09-08T18:01:32.546Z,31.10
2023-09-08T18:04:00.631Z,30.90
2023-09-08T18:06:27.766Z,30.80
2023-09-08T18:08:54.854Z,30.70
2023-09-08T18:11:22.148Z,30.50
2023-09-08T18:13:49.808Z,30.40
2023-09-08T18:16:17.197Z,30.30
2023-09-08T18:18:46.680Z,30.20
2023-09-08T18:21:14.258Z,30.10
2023-09-08T18:23:41.829Z,30.10
2023-09-08T18:26:09.338Z,30.00
2023-09-08T18:28:36.609Z,29.90
2023-09-08T18:31:03.910Z,29.80
2023-09-08T18:33:31.092Z,29.60
2023-09-08T18:35:58.346Z,29.50
2023-09-08T18:38:25.687Z,29.40
2023-09-08T18:40:52.687Z,29.30
2023-09-08T18:43:19.627Z,29.30
2023-09-08T18:45:47.969Z,29.20
2023-09-08T18:48:15.028Z,29.10
2023-09-08T18:50:43.129Z,29.00
2023-09-08T18:53:11.462Z,28.90
2023-09-08T18:55:38.515Z,28.80
2023-09-08T18:58:06.480Z,28.70
2023-09-08T19:00:33.749Z,28.60
2023-09-08T19:03:00.972Z,28.50
2023-09-08T19:05:28.233Z,28.40
2023-09-08T19:07:55.190Z,28.30
2023-09-08T19:10:22.459Z,28.20
2023-09-08T19:12:49.481Z,28.10
2023-09-08T19:15:17.321Z,28.10
2023-09-08T19:17:44.592Z,28.00
2023-09-08T19:20:12.601Z,28.00
2023-09-08T19:22:39.614Z,27.90
2023-09-08T19:25:08.863Z,27.80
2023-09-08T19:27:36.782Z,27.80
2023-09-08T19:30:06.979Z,27.70
2023-09-08T19:32:34.415Z,27.70
2023-09-08T19:35:01.497Z,27.60
2023-09-08T19:37:28.552Z,27.40
2023-09-08T19:39:55.522Z,27.40
2023-09-08T19:42:22.486Z,27.30
2023-09-08T19:44:49.436Z,27.20
2023-09-08T19:47:16.534Z,27.10
2023-09-08T19:49:43.854Z,27.10
2023-09-08T19:52:13.432Z,27.00
2023-09-08T19:54:40.573Z,26.90
2023-09-08T19:57:07.535Z,26.90
2023-09-08T19:59:34.466Z,26.80
2023-09-08T20:02:01.492Z,26.80
2023-09-08T20:04:28.462Z,26.70
2023-09-08T20:06:58.345Z,26.70
2023-09-08T20:09:26.416Z,26.70
2023-09-08T20:11:54.044Z,26.70
2023-09-08T20:14:21.140Z,26.70
2023-09-08T20:16:48.165Z,26.60
2023-09-08T20:19:15.313Z,26.60
2023-09-08T20:21:42.537Z,26.50
2023-09-08T20:24:09.739Z,26.40
2023-09-08T20:26:37.078Z,26.30
2023-09-08T20:29:04.198Z,26.20
2023-09-08T20:31:32.097Z,26.00
2023-09-08T20:33:59.130Z,25.90
2023-09-08T20:36:26.191Z,25.80
2023-09-08T20:38:53.207Z,25.70
2023-09-08T20:41:20.243Z,25.70
2023-09-08T20:43:47.553Z,25.60
2023-09-08T20:46:15.661Z,25.50
2023-09-08T20:48:42.726Z,25.50
2023-09-08T20:51:12.442Z,25.50
2023-09-08T20:53:42.381Z,25.40
2023-09-08T20:56:11.215Z,25.40
2023-09-08T20:58:42.799Z,25.40
2023-09-08T21:01:11.063Z,25.30
2023-09-08T21:03:38.800Z,25.30
2023-09-08T21:06:06.459Z,25.30
2023-09-08T21:08:33.809Z,25.30
2023-09-08T21:11:00.828Z,25.30
2023-09-08T21:13:28.772Z,25.20
2023-09-08T21:15:56.741Z,25.10
2023-09-08T21:18:23.737Z,25.10
2023-09-08T21:20:50.921Z,25.00
2023-09-08T21:23:18.687Z,24.90
2023-09-08T21:25:45.682Z,24.90
2023-09-08T21:28:12.706Z,24.90
2023-09-08T21:30:39.766Z,24.90
2023-09-08T21:33:07.147Z,24.80
2023-09-08T21:35:34.504Z,24.80
2023-09-08T21:38:01.618Z,24.70
2023-09-08T21:40:29.038Z,24.70
2023-09-08T21:42:56.157Z,24.60
2023-09-08T21:45:23.162Z,24.60
2023-09-08T21:47:51.532Z,24.50
2023-09-08T21:50:19.100Z,24.50
2023-09-08T21:52:46.479Z,24.40
2023-09-08T21:55:14.122Z,24.40
2023-09-08T21:57:41.325Z,24.40
2023-09-08T22:00:12.582Z,24.30
2023-09-08T22:02:39.639Z,24.30
2023-09-08T22:05:07.453Z,24.30
2023-09-08T22:07:34.621Z,24.30
2023-09-08T22:10:01.723Z,24.30
2023-09-08T22:12:28.745Z,24.20
2023-09-08T22:14:56.648Z,24.10
2023-09-08T22:17:23.815Z,24.10
2023-09-08T22:19:54.426Z,24.00
2023-09-08T22:22:21.612Z,24.00
2023-09-08T22:24:48.598Z,23.90
2023-09-08T22:27:15.798Z,23.80
2023-09-08T22:29:42.809Z,23.80
2023-09-08T22:32:09.785Z,23.80
2023-09-08T22:34:36.787Z,23.70
2023-09-08T22:37:04.214Z,23.60
2023-09-08T22:39:31.188Z,23.60
2023-09-08T22:41:58.192Z,23.60
2023-09-08T22:44:25.130Z,23.60
2023-09-08T22:46:52.158Z,23.60
2023-09-08T22:49:19.137Z,23.50
2023-09-08T22:51:46.086Z,23.40
2023-09-08T22:54:13.008Z,23.40
2023-09-08T22:56:40.030Z,23.30
2023-09-08T22:59:07.017Z,23.40
2023-09-08T23:01:34.230Z,23.30
2023-09-08T23:04:01.513Z,23.30
2023-09-08T23:06:28.477Z,23.20
2023-09-08T23:08:55.479Z,23.30
2023-09-08T23:11:22.473Z,23.20
2023-09-08T23:13:49.512Z,23.20
2023-09-08T23:16:16.477Z,23.10
2023-09-08T23:18:43.430Z,23.10
2023-09-08T23:21:10.874Z,23.10
2023-09-08T23:23:38.337Z,23.00
2023-09-08T23:26:05.516Z,22.90
2023-09-08T23:28:32.602Z,22.90
2023-09-08T23:30:59.620Z,22.80
2023-09-08T23:33:26.857Z,22.80
2023-09-08T23:35:54.032Z,22.70
2023-09-08T23:38:21.062Z,22.70
2023-09-08T23:40:48.612Z,22.70
2023-09-08T23:43:15.748Z,22.70
2023-09-08T23:45:46.558Z,22.70
2023-09-08T23:48:13.994Z,22.70
2023-09-08T23:50:58.028Z,22.70
2023-09-08T23:53:27.379Z,22.60
2023-09-08T23:55:55.399Z,22.60
2023-09-08T23:58:22.871Z,22.60
